createdAt,value
2022-10-08T00:00:11.721Z,5.47
2022-10-08T00:02:40.840Z,6.70
2022-10-08T00:05:10.492Z,7.38
2022-10-08T00:10:10.416Z,6.50
2022-10-08T00:12:39.336Z,6.65
2022-10-08T00:15:09.294Z,4.68
2022-10-08T00:17:37.961Z,3.70
2022-10-08T00:20:07.382Z,3.53
2022-10-08T00:22:36.117Z,3.28
2022-10-08T00:25:05.032Z,3.28
2022-10-08T00:27:35.171Z,2.80
2022-10-08T00:30:04.171Z,2.83
2022-10-08T00:32:32.917Z,2.85
2022-10-08T00:35:01.673Z,3.40
2022-10-08T00:37:30.440Z,3.45
2022-10-08T00:39:59.099Z,3.10
2022-10-08T00:42:27.953Z,2.97
2022-10-08T00:44:59.756Z,3.20
2022-10-08T00:47:46.756Z,3.03
2022-10-08T00:50:19.417Z,2.83
2022-10-08T00:52:50.842Z,3.33
2022-10-08T00:55:23.294Z,3.03
2022-10-08T00:57:53.413Z,3.60
2022-10-08T01:00:26.079Z,3.05
2022-10-08T01:02:55.396Z,4.10
2022-10-08T01:05:30.284Z,3.67
2022-10-08T01:08:03.516Z,3.50
2022-10-08T01:10:39.334Z,3.42
2022-10-08T01:13:18.436Z,3.45
2022-10-08T01:15:56.302Z,3.67
2022-10-08T01:18:29.838Z,3.08
2022-10-08T01:21:05.118Z,3.95
2022-10-08T01:24:15.670Z,6.72
2022-10-08T01:26:57.156Z,6.05
2022-10-08T01:29:31.143Z,5.80
2022-10-08T01:32:03.456Z,4.50
2022-10-08T01:34:38.798Z,3.85
2022-10-08T01:37:12.029Z,4.95
2022-10-08T01:39:42.160Z,3.53
2022-10-08T01:42:12.430Z,3.63
2022-10-08T01:44:46.528Z,3.88
2022-10-08T01:47:21.634Z,4.47
2022-10-08T01:49:55.594Z,4.72
2022-10-08T01:52:28.347Z,5.10
2022-10-08T01:55:01.652Z,4.65
2022-10-08T01:57:32.169Z,3.85
2022-10-08T02:00:07.800Z,5.40
2022-10-08T02:02:44.371Z,4.32
2022-10-08T02:05:13.836Z,6.00
2022-10-08T02:07:44.707Z,4.90
2022-10-08T02:10:16.319Z,5.20
2022-10-08T02:12:46.053Z,4.00
2022-10-08T02:15:20.218Z,5.00
2022-10-08T02:17:57.050Z,8.00
2022-10-08T02:20:33.773Z,7.32
2022-10-08T02:23:07.807Z,4.95
2022-10-08T02:25:40.412Z,4.13
2022-10-08T02:28:14.566Z,3.97
2022-10-08T02:30:50.077Z,3.42
2022-10-08T02:33:25.644Z,3.72
2022-10-08T02:35:58.510Z,3.85
2022-10-08T02:38:31.932Z,4.72
2022-10-08T02:41:03.792Z,5.45
2022-10-08T02:43:36.456Z,4.45
2022-10-08T02:46:14.869Z,4.45
2022-10-08T02:48:48.291Z,4.05
2022-10-08T02:51:19.324Z,5.22
2022-10-08T02:53:49.685Z,6.93
2022-10-08T02:56:23.889Z,5.18
2022-10-08T02:58:53.357Z,5.10
2022-10-08T03:01:33.380Z,5.18
2022-10-08T03:04:06.454Z,4.68
2022-10-08T03:06:36.762Z,4.68
2022-10-08T03:09:07.465Z,4.75
2022-10-08T03:11:36.997Z,5.30
2022-10-08T03:14:09.681Z,4.22
2022-10-08T03:16:41.782Z,5.10
2022-10-08T03:19:12.680Z,4.10
2022-10-08T03:21:43.452Z,4.72
2022-10-08T03:24:14.084Z,5.13
2022-10-08T03:26:43.084Z,5.35
2022-10-08T03:29:11.838Z,4.60
2022-10-08T03:31:41.937Z,6.20
2022-10-08T03:34:10.903Z,4.90
2022-10-08T03:36:39.879Z,4.72
2022-10-08T03:39:08.649Z,4.05
2022-10-08T03:41:37.310Z,4.73
2022-10-08T03:44:08.646Z,4.27
2022-10-08T03:46:37.507Z,4.97
2022-10-08T03:49:07.635Z,5.60
2022-10-08T03:51:36.515Z,5.88
2022-10-08T03:54:05.347Z,5.50
2022-10-08T03:56:34.710Z,4.53
2022-10-08T04:01:32.769Z,4.47
2022-10-08T04:04:01.457Z,3.80
2022-10-08T04:06:31.719Z,4.32
2022-10-08T04:09:01.318Z,4.32
2022-10-08T04:13:58.940Z,4.00
2022-10-08T04:16:27.754Z,4.43
2022-10-08T04:18:56.413Z,4.50
2022-10-08T04:21:25.167Z,4.22
2022-10-08T04:23:55.254Z,4.93
2022-10-08T04:26:23.966Z,4.25
2022-10-08T04:28:52.657Z,4.47
2022-10-08T04:31:23.637Z,5.22
2022-10-08T04:33:53.538Z,5.53
2022-10-08T04:36:23.586Z,5.13
2022-10-08T04:38:52.788Z,4.65
2022-10-08T04:41:24.529Z,5.45
2022-10-08T04:43:54.651Z,5.10
2022-10-08T04:46:24.062Z,6.20
2022-10-08T04:48:54.597Z,4.72
2022-10-08T04:51:24.770Z,5.75
2022-10-08T04:53:53.992Z,6.47
2022-10-08T04:56:25.929Z,6.45
2022-10-08T04:58:55.364Z,5.88
2022-10-08T05:01:25.737Z,6.00
2022-10-08T05:03:55.818Z,6.97
2022-10-08T05:06:27.225Z,5.85
2022-10-08T05:08:56.480Z,6.20
2022-10-08T05:11:28.394Z,6.32
2022-10-08T05:13:59.287Z,5.82
2022-10-08T05:16:28.785Z,6.68
2022-10-08T05:18:58.084Z,6.00
2022-10-08T05:21:29.102Z,5.68
2022-10-08T05:23:59.010Z,6.40
2022-10-08T05:26:59.262Z,6.82
2022-10-08T05:29:20.429Z,6.65
2022-10-08T05:31:49.116Z,6.15
2022-10-08T05:34:18.012Z,7.03
2022-10-08T05:36:46.684Z,6.88
2022-10-08T05:39:15.577Z,6.17
2022-10-08T05:41:45.875Z,6.70
2022-10-08T05:44:14.898Z,7.10
2022-10-08T05:46:43.801Z,6.90
2022-10-08T05:49:19.811Z,6.50
2022-10-08T05:51:48.933Z,6.68
2022-10-08T05:54:18.276Z,6.80
2022-10-08T05:56:49.929Z,6.63
2022-10-08T05:59:21.132Z,7.82
2022-10-08T06:01:50.358Z,7.63
2022-10-08T06:04:19.698Z,7.80
2022-10-08T06:06:48.697Z,7.60
2022-10-08T06:09:19.571Z,7.53
2022-10-08T06:11:50.272Z,6.57
2022-10-08T06:14:20.562Z,7.47
2022-10-08T06:16:49.802Z,7.38
2022-10-08T06:19:18.659Z,7.38
2022-10-08T06:21:47.477Z,7.07
2022-10-08T06:24:16.684Z,6.80
2022-10-08T06:26:46.451Z,7.05
2022-10-08T06:29:19.186Z,6.70
2022-10-08T06:31:48.700Z,6.38
2022-10-08T06:34:17.533Z,5.80
2022-10-08T06:36:46.170Z,7.25
2022-10-08T06:39:16.591Z,6.77
2022-10-08T06:41:45.456Z,5.53
2022-10-08T06:44:19.271Z,5.82
2022-10-08T06:46:48.201Z,6.00
2022-10-08T06:49:18.447Z,5.88
2022-10-08T06:51:47.259Z,5.82
2022-10-08T06:54:16.615Z,6.22
2022-10-08T06:56:45.328Z,5.75
2022-10-08T06:59:14.227Z,6.00
2022-10-08T07:01:44.398Z,6.45
2022-10-08T07:04:13.685Z,5.57
2022-10-08T07:06:42.439Z,6.18
2022-10-08T07:09:11.228Z,5.70
2022-10-08T07:11:40.628Z,5.95
2022-10-08T07:14:09.312Z,6.18
2022-10-08T07:16:38.313Z,5.43
2022-10-08T07:19:08.673Z,6.63
2022-10-08T07:21:37.524Z,5.88
2022-10-08T07:24:06.644Z,5.40
2022-10-08T07:26:36.664Z,5.55
2022-10-08T07:29:07.716Z,5.50
2022-10-08T07:31:38.477Z,5.90
2022-10-08T07:34:11.089Z,5.30
2022-10-08T07:36:40.593Z,4.80
2022-10-08T07:39:12.210Z,4.65
2022-10-08T07:41:40.993Z,5.03
2022-10-08T07:44:12.264Z,4.82
2022-10-08T07:46:45.552Z,4.93
2022-10-08T07:49:16.105Z,4.47
2022-10-08T07:51:45.952Z,4.53
2022-10-08T07:54:17.625Z,5.25
2022-10-08T07:56:46.629Z,4.10
2022-10-08T07:59:16.256Z,3.85
2022-10-08T08:01:45.591Z,3.92
2022-10-08T08:04:16.037Z,4.22
2022-10-08T08:06:47.722Z,3.97
2022-10-08T08:09:16.996Z,4.30
2022-10-08T08:11:46.495Z,3.95
2022-10-08T08:14:15.203Z,3.97
2022-10-08T08:16:44.005Z,4.18
2022-10-08T08:19:12.734Z,4.10
2022-10-08T08:21:42.823Z,3.92
2022-10-08T08:24:12.798Z,3.90
2022-10-08T08:26:43.602Z,3.80
2022-10-08T08:29:13.833Z,4.05
2022-10-08T08:31:44.523Z,4.05
2022-10-08T08:34:15.884Z,3.95
2022-10-08T08:36:48.910Z,4.07
2022-10-08T08:39:19.342Z,3.72
2022-10-08T08:42:14.280Z,3.92
2022-10-08T08:44:44.353Z,3.88
2022-10-08T08:47:18.755Z,3.83
2022-10-08T08:49:52.262Z,3.63
2022-10-08T08:52:26.598Z,4.18
2022-10-08T08:54:55.444Z,4.10
2022-10-08T08:57:37.327Z,4.47
2022-10-08T09:00:09.349Z,3.35
2022-10-08T09:02:46.941Z,4.00
2022-10-08T09:05:18.494Z,3.35
2022-10-08T09:07:53.099Z,3.95
2022-10-08T09:10:26.275Z,3.65
2022-10-08T09:12:57.240Z,3.50
2022-10-08T09:15:30.613Z,3.75
2022-10-08T09:18:02.188Z,3.50
2022-10-08T09:20:33.160Z,3.53
2022-10-08T09:23:10.488Z,3.65
2022-10-08T09:25:39.245Z,3.70
2022-10-08T09:28:08.177Z,3.67
2022-10-08T09:30:38.963Z,3.53
2022-10-08T09:33:29.581Z,3.45
2022-10-08T09:35:58.784Z,3.22
2022-10-08T09:38:31.693Z,3.15
2022-10-08T09:41:06.989Z,4.75
2022-10-08T09:43:36.308Z,3.80
2022-10-08T09:46:12.173Z,3.67
2022-10-08T09:48:43.453Z,3.20
2022-10-08T09:51:17.584Z,3.13
2022-10-08T09:53:50.280Z,2.83
2022-10-08T09:56:27.922Z,3.13
2022-10-08T09:58:59.504Z,3.33
2022-10-08T10:01:31.591Z,3.53
2022-10-08T10:04:02.495Z,3.50
2022-10-08T10:06:33.779Z,3.85
2022-10-08T10:09:13.281Z,3.20
2022-10-08T10:14:21.859Z,3.25
2022-10-08T10:16:57.697Z,3.57
2022-10-08T10:19:31.762Z,3.58
2022-10-08T10:22:04.648Z,3.45
2022-10-08T10:24:45.888Z,3.72
2022-10-08T10:27:20.742Z,3.90
2022-10-08T10:29:57.916Z,3.63
2022-10-08T10:32:32.340Z,3.10
2022-10-08T10:35:06.571Z,3.38
2022-10-08T10:37:40.138Z,3.20
2022-10-08T10:40:23.668Z,3.10
2022-10-08T10:42:59.275Z,3.28
2022-10-08T10:45:35.242Z,3.20
2022-10-08T10:48:05.280Z,2.97
2022-10-08T10:50:39.281Z,2.85
2022-10-08T10:53:20.570Z,3.03
2022-10-08T10:55:57.513Z,3.25
2022-10-08T10:58:40.503Z,3.08
2022-10-08T11:01:21.342Z,3.60
2022-10-08T11:04:02.138Z,3.05
2022-10-08T11:06:45.482Z,2.92
2022-10-08T11:09:24.456Z,2.53
2022-10-08T11:11:59.437Z,2.60
2022-10-08T11:14:44.676Z,2.42
2022-10-08T11:17:33.265Z,2.55
2022-10-08T11:20:18.065Z,1.83
2022-10-08T11:22:57.671Z,2.17
2022-10-08T11:25:44.690Z,2.65
2022-10-08T11:28:34.399Z,2.50
2022-10-08T11:31:20.088Z,2.58
2022-10-08T11:33:49.955Z,2.92
2022-10-08T11:36:29.235Z,2.40
2022-10-08T11:39:08.956Z,2.30
2022-10-08T11:41:47.919Z,2.20
2022-10-08T11:44:18.839Z,2.55
2022-10-08T11:46:47.940Z,2.03
2022-10-08T11:49:47.854Z,2.85
2022-10-08T11:52:17.357Z,2.88
2022-10-08T11:54:55.311Z,2.22
2022-10-08T11:57:55.511Z,2.45
2022-10-08T12:00:38.405Z,2.45
2022-10-08T12:03:19.979Z,2.72
2022-10-08T12:05:52.576Z,2.53
2022-10-08T12:08:53.458Z,2.40
2022-10-08T12:12:04.423Z,2.50
2022-10-08T12:14:48.874Z,2.08
2022-10-08T12:17:19.373Z,2.40
2022-10-08T12:20:21.890Z,2.28
2022-10-08T12:23:05.937Z,2.20
2022-10-08T12:25:38.006Z,1.98
2022-10-08T12:28:47.501Z,2.58
2022-10-08T12:31:35.779Z,2.38
2022-10-08T12:34:17.794Z,2.43
2022-10-08T12:37:02.033Z,2.72
2022-10-08T12:39:41.968Z,2.40
2022-10-08T12:42:19.328Z,2.90
2022-10-08T12:45:08.166Z,2.60
2022-10-08T12:47:46.022Z,2.97
2022-10-08T12:50:52.289Z,2.83
2022-10-08T12:53:21.254Z,2.53
2022-10-08T12:55:53.649Z,2.97
2022-10-08T12:58:26.133Z,2.67
2022-10-08T13:00:57.765Z,2.78
2022-10-08T13:03:26.736Z,2.30
2022-10-08T13:05:57.852Z,2.50
2022-10-08T13:08:35.055Z,2.10
2022-10-08T13:11:06.758Z,2.08
2022-10-08T13:13:49.218Z,2.30
2022-10-08T13:16:20.003Z,2.60
2022-10-08T13:18:53.629Z,2.20
2022-10-08T13:21:38.367Z,2.28
2022-10-08T13:24:32.341Z,2.10
2022-10-08T13:27:01.055Z,2.33
2022-10-08T13:29:32.616Z,2.03
2022-10-08T13:32:03.733Z,1.85
2022-10-08T13:34:35.087Z,1.92
2022-10-08T13:37:07.550Z,1.75
2022-10-08T13:39:39.029Z,1.80
2022-10-08T13:42:11.557Z,2.10
2022-10-08T13:44:42.612Z,1.92
2022-10-08T13:47:14.238Z,1.80
2022-10-08T13:49:43.311Z,1.90
2022-10-08T13:52:16.927Z,1.92
2022-10-08T13:54:46.044Z,1.90
2022-10-08T13:57:14.988Z,2.05
2022-10-08T13:59:43.643Z,1.70
2022-10-08T14:02:14.358Z,2.08
2022-10-08T14:04:43.248Z,1.98
2022-10-08T14:07:21.576Z,2.55
2022-10-08T14:09:50.261Z,2.10
2022-10-08T14:12:21.970Z,2.30
2022-10-08T14:14:50.716Z,1.98
2022-10-08T14:17:19.403Z,2.28
2022-10-08T14:19:48.147Z,2.63
2022-10-08T14:22:19.115Z,2.20
2022-10-08T14:24:47.826Z,2.53
2022-10-08T14:27:16.528Z,2.40
2022-10-08T14:29:45.260Z,2.22
2022-10-08T14:32:13.934Z,2.13
2022-10-08T14:34:42.594Z,1.90
2022-10-08T14:37:11.877Z,2.03
2022-10-08T14:42:10.479Z,2.00
2022-10-08T14:44:39.187Z,3.15
2022-10-08T14:47:07.992Z,1.85
2022-10-08T14:49:37.273Z,1.65
2022-10-08T14:54:36.807Z,2.10
2022-10-08T14:57:06.949Z,2.13
2022-10-08T14:59:39.879Z,2.60
2022-10-08T15:02:12.010Z,2.22
2022-10-08T15:04:42.153Z,2.97
2022-10-08T15:07:10.890Z,2.20
2022-10-08T15:09:40.715Z,2.53
2022-10-08T15:12:10.969Z,3.05
2022-10-08T15:14:39.652Z,2.33
2022-10-08T15:17:08.362Z,2.55
2022-10-08T15:19:37.030Z,2.72
2022-10-08T15:22:05.850Z,2.03
2022-10-08T15:24:34.643Z,2.00
2022-10-08T15:27:03.337Z,3.25
2022-10-08T15:29:33.447Z,2.45
2022-10-08T15:32:02.177Z,2.40
2022-10-08T15:34:30.802Z,1.83
2022-10-08T15:36:59.561Z,2.65
2022-10-08T15:39:32.193Z,2.47
2022-10-08T15:42:03.636Z,2.33
2022-10-08T15:44:33.863Z,2.30
2022-10-08T15:47:06.201Z,2.60
2022-10-08T15:49:37.396Z,2.65
2022-10-08T15:52:08.537Z,2.58
2022-10-08T15:54:38.080Z,2.65
2022-10-08T15:57:07.893Z,2.42
2022-10-08T15:59:38.206Z,2.60
2022-10-08T16:02:09.823Z,2.88
2022-10-08T16:04:43.994Z,2.70
2022-10-08T16:07:14.612Z,3.03
2022-10-08T16:09:45.418Z,2.97
2022-10-08T16:12:16.329Z,3.28
2022-10-08T16:14:48.450Z,4.03
2022-10-08T16:17:19.142Z,4.22
2022-10-08T16:19:49.642Z,3.67
2022-10-08T16:22:20.233Z,3.80
2022-10-08T16:24:50.956Z,3.78
2022-10-08T16:27:21.588Z,3.00
2022-10-08T16:29:53.795Z,3.60
2022-10-08T16:32:23.692Z,3.38
2022-10-08T16:34:53.723Z,3.30
2022-10-08T16:37:23.802Z,3.25
2022-10-08T16:39:52.454Z,2.95
2022-10-08T16:42:21.127Z,3.13
2022-10-08T16:44:51.181Z,3.40
2022-10-08T16:47:19.954Z,2.90
2022-10-08T16:49:48.580Z,2.70
2022-10-08T16:52:17.234Z,2.60
2022-10-08T16:54:46.016Z,2.80
2022-10-08T16:57:14.659Z,2.53
2022-10-08T16:59:43.388Z,2.65
2022-10-08T17:02:13.526Z,2.58
2022-10-08T17:04:42.436Z,2.80
2022-10-08T17:07:11.149Z,2.50
2022-10-08T17:09:39.846Z,2.40
2022-10-08T17:12:08.545Z,2.60
2022-10-08T17:14:38.203Z,3.55
2022-10-08T17:17:06.948Z,2.65
2022-10-08T17:19:37.071Z,2.75
2022-10-08T17:22:05.811Z,2.97
2022-10-08T17:24:39.026Z,3.60
2022-10-08T17:27:11.916Z,3.20
2022-10-08T17:29:40.596Z,3.10
2022-10-08T17:32:09.485Z,3.10
2022-10-08T17:34:39.582Z,2.80
2022-10-08T17:37:08.245Z,2.88
2022-10-08T17:39:36.968Z,3.00
2022-10-08T17:42:07.283Z,3.13
2022-10-08T17:44:36.393Z,3.03
2022-10-08T17:47:05.079Z,2.92
2022-10-08T17:49:33.839Z,2.55
2022-10-08T17:52:03.944Z,3.22
2022-10-08T17:54:32.655Z,3.22
2022-10-08T17:57:01.235Z,3.05
2022-10-08T17:59:30.229Z,3.10
2022-10-08T18:01:58.932Z,3.25
2022-10-08T18:04:27.576Z,2.90
2022-10-08T18:07:01.121Z,3.05
2022-10-08T18:09:32.764Z,3.08
2022-10-08T18:12:01.424Z,3.15
2022-10-08T18:14:30.149Z,2.80
2022-10-08T18:16:58.813Z,3.00
2022-10-08T18:19:27.989Z,3.58
2022-10-08T18:21:56.640Z,2.92
2022-10-08T18:24:27.222Z,3.35
2022-10-08T18:26:59.194Z,2.60
2022-10-08T18:29:27.979Z,3.25
2022-10-08T18:31:56.653Z,3.58
2022-10-08T18:34:25.877Z,2.80
2022-10-08T18:36:54.513Z,3.33
2022-10-08T18:39:28.247Z,2.97
2022-10-08T18:41:58.922Z,2.53
2022-10-08T18:44:28.026Z,3.30
2022-10-08T18:46:59.661Z,2.78
2022-10-08T18:49:33.211Z,2.50
2022-10-08T18:52:02.233Z,2.83
2022-10-08T18:54:31.318Z,3.20
2022-10-08T18:57:01.514Z,3.03
2022-10-08T18:59:31.283Z,3.22
2022-10-08T19:02:00.683Z,3.13
2022-10-08T19:04:29.491Z,3.55
2022-10-08T19:06:58.266Z,2.90
2022-10-08T19:09:26.915Z,3.22
2022-10-08T19:11:57.610Z,3.33
2022-10-08T19:14:28.989Z,3.00
2022-10-08T19:16:57.750Z,3.72
2022-10-08T19:19:28.159Z,3.30
2022-10-08T19:22:00.387Z,2.72
2022-10-08T19:24:30.029Z,3.17
2022-10-08T19:26:59.108Z,3.67
2022-10-08T19:29:33.827Z,3.22
2022-10-08T19:32:02.488Z,2.97
2022-10-08T19:34:31.298Z,3.70
2022-10-08T19:36:59.965Z,3.15
2022-10-08T19:39:30.987Z,3.03
2022-10-08T19:42:00.007Z,3.47
2022-10-08T19:44:30.102Z,3.20
2022-10-08T19:46:58.878Z,3.20
2022-10-08T19:49:27.507Z,3.53
2022-10-08T19:51:58.339Z,3.92
2022-10-08T19:54:28.915Z,3.53
2022-10-08T19:56:59.430Z,3.63
2022-10-08T19:59:30.262Z,3.40
2022-10-08T20:02:02.165Z,3.55
2022-10-08T20:04:32.683Z,7.68
2022-10-08T20:07:03.248Z,6.10
2022-10-08T20:09:36.328Z,5.22
2022-10-08T20:12:07.258Z,4.43
2022-10-08T20:14:37.201Z,4.25
2022-10-08T20:17:09.335Z,3.50
2022-10-08T20:19:39.488Z,4.00
2022-10-08T20:22:11.632Z,3.30
2022-10-08T20:24:40.773Z,3.65
2022-10-08T20:27:09.370Z,3.33
2022-10-08T20:29:38.129Z,3.50
2022-10-08T20:32:08.223Z,4.10
2022-10-08T20:34:37.008Z,3.55
2022-10-08T20:37:05.689Z,3.33
2022-10-08T20:39:34.556Z,4.17
2022-10-08T20:42:03.279Z,4.72
2022-10-08T20:44:31.997Z,4.27
2022-10-08T20:47:01.251Z,3.88
2022-10-08T20:49:36.135Z,4.30
2022-10-08T20:52:05.340Z,4.25
2022-10-08T20:54:34.602Z,4.00
2022-10-08T20:57:03.584Z,3.83
2022-10-08T20:59:34.102Z,3.97
2022-10-08T21:02:04.147Z,4.40
2022-10-08T21:04:34.413Z,3.72
2022-10-08T21:07:03.167Z,4.55
2022-10-08T21:09:31.949Z,3.27
2022-10-08T21:12:01.118Z,3.45
2022-10-08T21:14:29.985Z,3.30
2022-10-08T21:16:58.798Z,3.25
2022-10-08T21:19:27.587Z,3.67
2022-10-08T21:21:57.694Z,3.70
2022-10-08T21:24:26.775Z,5.18
2022-10-08T21:26:55.435Z,3.53
2022-10-08T21:29:24.172Z,3.60
2022-10-08T21:31:52.991Z,3.33
2022-10-08T21:34:21.830Z,3.78
2022-10-08T21:36:50.686Z,3.05
2022-10-08T21:39:21.227Z,3.00
2022-10-08T21:41:52.624Z,3.22
2022-10-08T21:44:21.280Z,2.88
2022-10-08T21:46:50.289Z,2.83
2022-10-08T21:49:21.189Z,2.60
2022-10-08T21:51:50.278Z,2.83
2022-10-08T21:54:20.654Z,3.00
2022-10-08T21:56:49.389Z,2.35
2022-10-08T21:59:18.215Z,2.50
2022-10-08T22:01:48.378Z,2.60
2022-10-08T22:04:18.768Z,2.65
2022-10-08T22:06:49.934Z,2.95
2022-10-08T22:09:23.176Z,2.35
2022-10-08T22:11:55.293Z,2.53
2022-10-08T22:14:27.308Z,2.25
2022-10-08T22:16:58.170Z,2.17
2022-10-08T22:19:28.496Z,3.13
2022-10-08T22:21:59.133Z,1.92
2022-10-08T22:24:29.863Z,2.42
2022-10-08T22:27:00.160Z,2.30
2022-10-08T22:29:29.113Z,2.38
2022-10-08T22:31:58.171Z,2.20
2022-10-08T22:34:27.349Z,3.60
2022-10-08T22:36:56.351Z,2.80
2022-10-08T22:39:25.884Z,2.47
2022-10-08T22:44:25.366Z,2.10
2022-10-08T22:46:55.906Z,2.03
2022-10-08T22:49:24.736Z,2.10
2022-10-08T22:51:53.410Z,3.00
2022-10-08T22:54:22.829Z,2.43
2022-10-08T22:56:51.708Z,1.98
2022-10-08T22:59:20.514Z,2.25
2022-10-08T23:01:50.976Z,2.00
2022-10-08T23:04:21.042Z,1.85
2022-10-08T23:06:50.420Z,2.13
2022-10-08T23:09:19.612Z,2.17
2022-10-08T23:11:48.299Z,2.83
2022-10-08T23:14:17.140Z,2.70
2022-10-08T23:16:45.895Z,2.78
2022-10-08T23:19:16.914Z,2.15
2022-10-08T23:21:45.534Z,2.25
2022-10-08T23:24:14.219Z,2.57
2022-10-08T23:26:42.937Z,2.47
2022-10-08T23:29:12.815Z,2.63
2022-10-08T23:31:41.654Z,3.08
2022-10-08T23:34:10.763Z,2.90
2022-10-08T23:36:43.196Z,4.15
2022-10-08T23:39:14.964Z,4.20
2022-10-08T23:41:44.131Z,4.68
2022-10-08T23:44:13.665Z,3.72
2022-10-08T23:49:10.971Z,4.15
2022-10-08T23:51:41.071Z,2.83
2022-10-08T23:54:09.812Z,3.92
2022-10-08T23:56:38.471Z,2.90
2022-10-08T23:59:07.159Z,3.88
